sensor_id;sensor_type;location;lat;lon;timestamp;pressure;altitude;pressure_sealevel;temperature;humidity
70370;BME280;57790;51.356;-2.906;2024-03-23T00:54:57;101890.38;;;10.86;100.00
70370;BME280;57790;51.356;-2.906;2024-03-23T00:57:58;101878.59;;;10.79;100.00
70370;BME280;57790;51.356;-2.906;2024-03-23T01:00:58;101875.94;;;10.79;100.00
70370;BME280;57790;51.356;-2.906;2024-03-23T01:03:59;101866.19;;;10.80;100.00
70370;BME280;57790;51.356;-2.906;2024-03-23T01:06:59;101871.63;;;10.78;100.00
70370;BME280;57790;51.356;-2.906;2024-03-23T01:09:59;101874.97;;;10.80;100.00
70370;BME280;57790;51.356;-2.906;2024-03-23T01:13:00;101874.81;;;10.72;100.00
70370;BME280;57790;51.356;-2.906;2024-03-23T01:16:00;101880.81;;;10.74;100.00
70370;BME280;57790;51.356;-2.906;2024-03-23T01:19:01;101875.22;;;10.67;100.00
70370;BME280;57790;51.356;-2.906;2024-03-23T01:22:02;101876.63;;;10.71;100.00
70370;BME280;57790;51.356;-2.906;2024-03-23T01:25:02;101867.84;;;10.71;100.00
70370;BME280;57790;51.356;-2.906;2024-03-23T01:28:04;101863.63;;;10.68;100.00
70370;BME280;57790;51.356;-2.906;2024-03-23T01:31:04;101857.63;;;10.66;100.00
70370;BME280;57790;51.356;-2.906;2024-03-23T01:34:05;101871.16;;;10.63;100.00
70370;BME280;57790;51.356;-2.906;2024-03-23T01:37:05;101874.09;;;10.60;100.00
70370;BME280;57790;51.356;-2.906;2024-03-23T01:40:06;101882.75;;;10.62;100.00
70370;BME280;57790;51.356;-2.906;2024-03-23T01:43:08;101879.78;;;10.56;100.00
70370;BME280;57790;51.356;-2.906;2024-03-23T01:46:08;101874.22;;;10.59;100.00
70370;BME280;57790;51.356;-2.906;2024-03-23T01:49:09;101875.72;;;10.52;100.00
70370;BME280;57790;51.356;-2.906;2024-03-23T01:52:09;101867.75;;;10.52;100.00
70370;BME280;57790;51.356;-2.906;2024-03-23T01:55:10;101865.25;;;10.50;100.00
70370;BME280;57790;51.356;-2.906;2024-03-23T01:58:11;101867.19;;;10.48;100.00
70370;BME280;57790;51.356;-2.906;2024-03-23T02:01:11;101857.44;;;10.49;100.00
70370;BME280;57790;51.356;-2.906;2024-03-23T02:04:11;101869.94;;;10.37;100.00
70370;BME280;57790;51.356;-2.906;2024-03-23T02:07:12;101861.63;;;10.41;100.00
70370;BME280;57790;51.356;-2.906;2024-03-23T02:10:12;101858.97;;;10.41;100.00
70370;BME280;57790;51.356;-2.906;2024-03-23T02:13:17;101858.63;;;10.35;100.00
70370;BME280;57790;51.356;-2.906;2024-03-23T02:16:17;101855.84;;;10.36;100.00
70370;BME280;57790;51.356;-2.906;2024-03-23T02:19:18;101859.91;;;10.40;100.00
70370;BME280;57790;51.356;-2.906;2024-03-23T02:22:18;101860.31;;;10.36;100.00
70370;BME280;57790;51.356;-2.906;2024-03-23T02:25:19;101860.19;;;10.37;100.00
70370;BME280;57790;51.356;-2.906;2024-03-23T02:28:20;101857.50;;;10.28;100.00
70370;BME280;57790;51.356;-2.906;2024-03-23T02:31:20;101849.84;;;10.34;100.00
70370;BME280;57790;51.356;-2.906;2024-03-23T02:34:20;101853.75;;;10.30;100.00
70370;BME280;57790;51.356;-2.906;2024-03-23T02:37:21;101842.34;;;10.19;100.00
70370;BME280;57790;51.356;-2.906;2024-03-23T02:40:23;101846.81;;;10.18;100.00
70370;BME280;57790;51.356;-2.906;2024-03-23T02:43:23;101834.50;;;10.07;100.00
70370;BME280;57790;51.356;-2.906;2024-03-23T02:46:23;101838.88;;;10.18;100.00
70370;BME280;57790;51.356;-2.906;2024-03-23T02:49:24;101842.16;;;10.10;100.00
70370;BME280;57790;51.356;-2.906;2024-03-23T02:52:25;101851.22;;;10.08;100.00
70370;BME280;57790;51.356;-2.906;2024-03-23T02:55:25;101839.50;;;10.10;100.00
70370;BME280;57790;51.356;-2.906;2024-03-23T02:58:25;101849.41;;;10.08;100.00
70370;BME280;57790;51.356;-2.906;2024-03-23T03:01:26;101842.84;;;10.03;100.00
70370;BME280;57790;51.356;-2.906;2024-03-23T03:04:26;101842.13;;;10.01;100.00
70370;BME280;57790;51.356;-2.906;2024-03-23T03:07:27;101833.22;;;10.02;100.00
70370;BME280;57790;51.356;-2.906;2024-03-23T03:10:27;101826.09;;;10.02;100.00
70370;BME280;57790;51.356;-2.906;2024-03-23T03:13:27;101829.13;;;9.98;100.00
70370;BME280;57790;51.356;-2.906;2024-03-23T03:16:28;101839.50;;;10.01;100.00
70370;BME280;57790;51.356;-2.906;2024-03-23T03:19:28;101829.88;;;10.00;100.00
70370;BME280;57790;51.356;-2.906;2024-03-23T03:22:28;101839.44;;;9.91;100.00
70370;BME280;57790;51.356;-2.906;2024-03-23T03:25:29;101843.03;;;9.90;100.00
70370;BME280;57790;51.356;-2.906;2024-03-23T03:28:30;101831.69;;;9.99;100.00
70370;BME280;57790;51.356;-2.906;2024-03-23T03:31:31;101836.50;;;9.94;100.00
70370;BME280;57790;51.356;-2.906;2024-03-23T03:34:31;101833.16;;;9.92;100.00
70370;BME280;57790;51.356;-2.906;2024-03-23T03:37:31;101830.22;;;9.86;100.00
70370;BME280;57790;51.356;-2.906;2024-03-23T03:40:32;101831.28;;;9.83;100.00
70370;BME280;57790;51.356;-2.906;2024-03-23T03:43:32;101832.59;;;9.89;100.00
70370;BME280;57790;51.356;-2.906;2024-03-23T03:46:33;101828.06;;;9.79;100.00
70370;BME280;57790;51.356;-2.906;2024-03-23T03:49:33;101822.75;;;9.79;100.00
70370;BME280;57790;51.356;-2.906;2024-03-23T03:52:33;101821.94;;;9.79;100.00
70370;BME280;57790;51.356;-2.906;2024-03-23T03:55:34;101823.75;;;9.78;100.00
70370;BME280;57790;51.356;-2.906;2024-03-23T03:58:34;101817.59;;;9.78;100.00
70370;BME280;57790;51.356;-2.906;2024-03-23T04:01:34;101819.28;;;9.79;100.00
70370;BME280;57790;51.356;-2.906;2024-03-23T04:04:35;101811.75;;;9.74;100.00
70370;BME280;57790;51.356;-2.906;2024-03-23T04:07:35;101805.88;;;9.71;100.00
70370;BME280;57790;51.356;-2.906;2024-03-23T04:10:36;101808.88;;;9.66;100.00
70370;BME280;57790;51.356;-2.906;2024-03-23T04:13:36;101807.78;;;9.69;100.00
70370;BME280;57790;51.356;-2.906;2024-03-23T04:16:36;101809.84;;;9.65;100.00
70370;BME280;57790;51.356;-2.906;2024-03-23T04:19:37;101807.91;;;9.67;100.00
70370;BME280;57790;51.356;-2.906;2024-03-23T04:22:37;101801.28;;;9.73;100.00
70370;BME280;57790;51.356;-2.906;2024-03-23T04:25:38;101798.28;;;9.66;100.00
70370;BME280;57790;51.356;-2.906;2024-03-23T04:28:38;101788.25;;;9.60;100.00
70370;BME280;57790;51.356;-2.906;2024-03-23T04:31:38;101787.66;;;9.57;100.00
70370;BME280;57790;51.356;-2.906;2024-03-23T04:34:39;101778.50;;;9.61;100.00
70370;BME280;57790;51.356;-2.906;2024-03-23T04:37:40;101779.84;;;9.55;100.00
70370;BME280;57790;51.356;-2.906;2024-03-23T04:40:43;101784.56;;;9.51;100.00
70370;BME280;57790;51.356;-2.906;2024-03-23T04:43:43;101794.88;;;9.54;100.00
70370;BME280;57790;51.356;-2.906;2024-03-23T04:46:44;101788.63;;;9.56;100.00
70370;BME280;57790;51.356;-2.906;2024-03-23T04:49:44;101792.97;;;9.57;100.00
70370;BME280;57790;51.356;-2.906;2024-03-23T04:52:44;101792.34;;;9.53;100.00
70370;BME280;57790;51.356;-2.906;2024-03-23T04:55:45;101788.84;;;9.43;100.00
70370;BME280;57790;51.356;-2.906;2024-03-23T04:58:45;101780.75;;;9.44;100.00
70370;BME280;57790;51.356;-2.906;2024-03-23T05:01:46;101777.28;;;9.44;100.00
70370;BME280;57790;51.356;-2.906;2024-03-23T05:04:46;101783.41;;;9.44;100.00
70370;BME280;57790;51.356;-2.906;2024-03-23T05:07:47;101774.06;;;9.40;100.00
70370;BME280;57790;51.356;-2.906;2024-03-23T05:10:47;101770.53;;;9.40;100.00
70370;BME280;57790;51.356;-2.906;2024-03-23T05:13:47;101775.13;;;9.38;100.00
70370;BME280;57790;51.356;-2.906;2024-03-23T05:16:48;101764.94;;;9.33;100.00
70370;BME280;57790;51.356;-2.906;2024-03-23T05:19:48;101759.22;;;9.28;100.00
70370;BME280;57790;51.356;-2.906;2024-03-23T05:22:49;101764.53;;;9.38;100.00
70370;BME280;57790;51.356;-2.906;2024-03-23T05:25:50;101758.69;;;9.34;100.00
70370;BME280;57790;51.356;-2.906;2024-03-23T05:28:52;101756.28;;;9.31;100.00
70370;BME280;57790;51.356;-2.906;2024-03-23T05:31:52;101746.56;;;9.32;100.00
70370;BME280;57790;51.356;-2.906;2024-03-23T05:34:53;101740.28;;;9.33;100.00
70370;BME280;57790;51.356;-2.906;2024-03-23T05:37:56;101739.06;;;9.37;100.00
70370;BME280;57790;51.356;-2.906;2024-03-23T05:40:59;101736.81;;;9.32;100.00
70370;BME280;57790;51.356;-2.906;2024-03-23T05:44:00;101739.00;;;9.27;100.00
70370;BME280;57790;51.356;-2.906;2024-03-23T05:47:00;101748.84;;;9.25;100.00
70370;BME280;57790;51.356;-2.906;2024-03-23T05:50:01;101748.00;;;9.24;100.00
70370;BME280;57790;51.356;-2.906;2024-03-23T05:53:02;101752.25;;;9.27;100.00
70370;BME280;57790;51.356;-2.906;2024-03-23T05:56:04;101742.34;;;9.29;100.00
70370;BME280;57790;51.356;-2.906;2024-03-23T05:59:06;101736.09;;;9.30;100.00
70370;BME280;57790;51.356;-2.906;2024-03-23T06:02:07;101739.84;;;9.28;100.00
70370;BME280;57790;51.356;-2.906;2024-03-23T06:05:07;101734.34;;;9.19;100.00
70370;BME280;57790;51.356;-2.906;2024-03-23T06:08:07;101732.88;;;9.27;100.00
70370;BME280;57790;51.356;-2.906;2024-03-23T06:11:09;101729.13;;;9.29;100.00
70370;BME280;57790;51.356;-2.906;2024-03-23T06:14:10;101737.56;;;9.23;100.00
70370;BME280;57790;51.356;-2.906;2024-03-23T06:17:10;101739.44;;;9.32;100.00
70370;BME280;57790;51.356;-2.906;2024-03-23T06:20:11;101731.16;;;9.25;100.00
70370;BME280;57790;51.356;-2.906;2024-03-23T06:23:11;101737.13;;;9.18;100.00
70370;BME280;57790;51.356;-2.906;2024-03-23T06:26:13;101739.25;;;9.24;100.00
70370;BME280;57790;51.356;-2.906;2024-03-23T06:29:13;101718.75;;;9.16;100.00
70370;BME280;57790;51.356;-2.906;2024-03-23T06:32:14;101730.72;;;9.20;100.00
70370;BME280;57790;51.356;-2.906;2024-03-23T06:35:14;101733.25;;;9.22;100.00
70370;BME280;57790;51.356;-2.906;2024-03-23T06:38:14;101720.84;;;9.22;100.00
70370;BME280;57790;51.356;-2.906;2024-03-23T06:41:15;101719.72;;;9.15;100.00
70370;BME280;57790;51.356;-2.906;2024-03-23T06:44:15;101711.38;;;9.20;100.00
70370;BME280;57790;51.356;-2.906;2024-03-23T06:47:15;101710.53;;;9.19;100.00
70370;BME280;57790;51.356;-2.906;2024-03-23T06:50:16;101703.13;;;9.13;100.00
70370;BME280;57790;51.356;-2.906;2024-03-23T06:53:17;101698.41;;;9.17;100.00
70370;BME280;57790;51.356;-2.906;2024-03-23T06:56:17;101702.59;;;9.19;100.00
70370;BME280;57790;51.356;-2.906;2024-03-23T06:59:17;101698.97;;;9.20;100.00
70370;BME280;57790;51.356;-2.906;2024-03-23T07:02:18;101700.53;;;9.23;100.00
70370;BME280;57790;51.356;-2.906;2024-03-23T07:05:18;101698.97;;;9.20;100.00
70370;BME280;57790;51.356;-2.906;2024-03-23T07:08:18;101702.34;;;9.22;100.00
70370;BME280;57790;51.356;-2.906;2024-03-23T07:11:23;101679.63;;;9.20;100.00
70370;BME280;57790;51.356;-2.906;2024-03-23T07:14:23;101678.16;;;9.27;100.00
70370;BME280;57790;51.356;-2.906;2024-03-23T07:17:24;101668.97;;;9.31;100.00
70370;BME280;57790;51.356;-2.906;2024-03-23T07:20:24;101671.44;;;9.23;100.00
70370;BME280;57790;51.356;-2.906;2024-03-23T07:23:25;101678.25;;;9.25;100.00
70370;BME280;57790;51.356;-2.906;2024-03-23T07:26:25;101677.75;;;9.32;100.00
70370;BME280;57790;51.356;-2.906;2024-03-23T07:29:26;101677.47;;;9.35;100.00
70370;BME280;57790;51.356;-2.906;2024-03-23T07:32:26;101673.28;;;9.32;100.00
70370;BME280;57790;51.356;-2.906;2024-03-23T07:35:27;101668.00;;;9.32;100.00
70370;BME280;57790;51.356;-2.906;2024-03-23T07:38:28;101673.88;;;9.36;100.00
70370;BME280;57790;51.356;-2.906;2024-03-23T07:41:28;101679.16;;;9.36;100.00
70370;BME280;57790;51.356;-2.906;2024-03-23T07:44:29;101676.25;;;9.39;100.00
70370;BME280;57790;51.356;-2.906;2024-03-23T07:47:29;101673.03;;;9.35;100.00
70370;BME280;57790;51.356;-2.906;2024-03-23T07:50:29;101663.97;;;9.38;100.00
70370;BME280;57790;51.356;-2.906;2024-03-23T07:53:31;101660.25;;;9.40;100.00
70370;BME280;57790;51.356;-2.906;2024-03-23T07:56:32;101650.38;;;9.42;100.00
70370;BME280;57790;51.356;-2.906;2024-03-23T07:59:32;101644.13;;;9.43;100.00
70370;BME280;57790;51.356;-2.906;2024-03-23T08:02:34;101649.84;;;9.48;100.00
70370;BME280;57790;51.356;-2.906;2024-03-23T08:05:34;101642.72;;;9.49;100.00
70370;BME280;57790;51.356;-2.906;2024-03-23T08:08:35;101645.50;;;9.47;100.00
70370;BME280;57790;51.356;-2.906;2024-03-23T08:11:36;101641.06;;;9.48;100.00
70370;BME280;57790;51.356;-2.906;2024-03-23T08:14:36;101639.56;;;9.55;100.00
70370;BME280;57790;51.356;-2.906;2024-03-23T08:17:36;101629.91;;;9.54;100.00
70370;BME280;57790;51.356;-2.906;2024-03-23T08:20:37;101629.41;;;9.60;100.00
70370;BME280;57790;51.356;-2.906;2024-03-23T08:23:37;101625.78;;;9.61;100.00
70370;BME280;57790;51.356;-2.906;2024-03-23T08:26:40;101602.94;;;9.60;100.00
70370;BME280;57790;51.356;-2.906;2024-03-23T08:29:41;101605.03;;;9.66;100.00
70370;BME280;57790;51.356;-2.906;2024-03-23T08:32:41;101599.59;;;9.68;100.00
70370;BME280;57790;51.356;-2.906;2024-03-23T08:35:42;101605.19;;;9.74;100.00
70370;BME280;57790;51.356;-2.906;2024-03-23T08:38:42;101603.66;;;9.72;100.00
70370;BME280;57790;51.356;-2.906;2024-03-23T08:41:43;101598.38;;;9.81;100.00
70370;BME280;57790;51.356;-2.906;2024-03-23T08:44:47;101607.88;;;9.84;100.00
70370;BME280;57790;51.356;-2.906;2024-03-23T08:47:49;101605.78;;;9.88;100.00
70370;BME280;57790;51.356;-2.906;2024-03-23T08:51:03;101610.13;;;9.89;100.00
70370;BME280;57790;51.356;-2.906;2024-03-23T08:54:04;101605.09;;;9.95;100.00
70370;BME280;57790;51.356;-2.906;2024-03-23T08:57:04;101600.38;;;9.99;100.00
70370;BME280;57790;51.356;-2.906;2024-03-23T09:00:05;101588.09;;;9.98;100.00
70370;BME280;57790;51.356;-2.906;2024-03-23T09:03:09;101581.69;;;10.00;100.00
70370;BME280;57790;51.356;-2.906;2024-03-23T09:06:10;101591.59;;;9.98;100.00
70370;BME280;57790;51.356;-2.906;2024-03-23T09:09:11;101579.06;;;10.00;100.00
70370;BME280;57790;51.356;-2.906;2024-03-23T09:12:11;101581.56;;;10.02;100.00
70370;BME280;57790;51.356;-2.906;2024-03-23T09:15:12;101578.91;;;10.02;100.00
70370;BME280;57790;51.356;-2.906;2024-03-23T09:18:13;101578.47;;;10.06;100.00
70370;BME280;57790;51.356;-2.906;2024-03-23T09:21:13;101574.84;;;10.07;100.00
70370;BME280;57790;51.356;-2.906;2024-03-23T09:24:14;101574.03;;;10.07;100.00
70370;BME280;57790;51.356;-2.906;2024-03-23T09:27:15;101583.22;;;10.12;100.00
70370;BME280;57790;51.356;-2.906;2024-03-23T09:30:15;101588.13;;;10.17;100.00
70370;BME280;57790;51.356;-2.906;2024-03-23T09:33:16;101579.88;;;10.20;100.00
70370;BME280;57790;51.356;-2.906;2024-03-23T09:36:16;101574.88;;;10.17;100.00
70370;BME280;57790;51.356;-2.906;2024-03-23T09:39:17;101570.84;;;10.23;100.00
70370;BME280;57790;51.356;-2.906;2024-03-23T09:42:17;101574.06;;;10.26;100.00
70370;BME280;57790;51.356;-2.906;2024-03-23T09:45:21;101568.19;;;10.23;100.00
70370;BME280;57790;51.356;-2.906;2024-03-23T09:48:22;101570.00;;;10.22;100.00
70370;BME280;57790;51.356;-2.906;2024-03-23T09:51:22;101563.03;;;10.21;100.00
70370;BME280;57790;51.356;-2.906;2024-03-23T09:54:24;101555.09;;;10.21;100.00
70370;BME280;57790;51.356;-2.906;2024-03-23T09:57:25;101566.81;;;10.28;100.00
70370;BME280;57790;51.356;-2.906;2024-03-23T10:00:25;101575.47;;;10.30;100.00
70370;BME280;57790;51.356;-2.906;2024-03-23T10:03:25;101568.06;;;10.24;100.00
70370;BME280;57790;51.356;-2.906;2024-03-23T10:06:26;101547.56;;;10.26;100.00
70370;BME280;57790;51.356;-2.906;2024-03-23T10:09:26;101547.56;;;10.26;100.00
70370;BME280;57790;51.356;-2.906;2024-03-23T10:12:26;101538.38;;;10.30;100.00
70370;BME280;57790;51.356;-2.906;2024-03-23T10:15:27;101533.34;;;10.27;100.00
70370;BME280;57790;51.356;-2.906;2024-03-23T10:18:27;101532.47;;;10.36;100.00
70370;BME280;57790;51.356;-2.906;2024-03-23T10:21:28;101540.00;;;10.41;100.00
70370;BME280;57790;51.356;-2.906;2024-03-23T10:24:29;101531.94;;;10.42;100.00
70370;BME280;57790;51.356;-2.906;2024-03-23T10:27:29;101528.00;;;10.47;100.00
70370;BME280;57790;51.356;-2.906;2024-03-23T10:30:29;101528.00;;;10.47;100.00
70370;BME280;57790;51.356;-2.906;2024-03-23T10:33:30;101525.66;;;10.43;100.00
70370;BME280;57790;51.356;-2.906;2024-03-23T10:36:30;101518.94;;;10.49;100.00
70370;BME280;57790;51.356;-2.906;2024-03-23T10:39:34;101532.88;;;10.51;100.00
70370;BME280;57790;51.356;-2.906;2024-03-23T10:42:36;101525.91;;;10.50;100.00
70370;BME280;57790;51.356;-2.906;2024-03-23T10:45:37;101530.09;;;10.53;100.00
70370;BME280;57790;51.356;-2.906;2024-03-23T10:48:41;101519.38;;;10.45;100.00
70370;BME280;57790;51.356;-2.906;2024-03-23T10:51:43;101513.78;;;10.48;100.00
70370;BME280;57790;51.356;-2.906;2024-03-23T10:54:45;101501.22;;;10.50;100.00
70370;BME280;57790;51.356;-2.906;2024-03-23T10:57:54;101504.56;;;10.52;100.00
70370;BME280;57790;51.356;-2.906;2024-03-23T11:00:55;101507.06;;;10.53;100.00
70370;BME280;57790;51.356;-2.906;2024-03-23T11:03:55;101493.41;;;10.58;100.00
70370;BME280;57790;51.356;-2.906;2024-03-23T11:06:57;101505.09;;;10.55;100.00
70370;BME280;57790;51.356;-2.906;2024-03-23T11:09:58;101508.88;;;10.53;100.00
70370;BME280;57790;51.356;-2.906;2024-03-23T11:13:22;101509.84;;;10.52;100.00
70370;BME280;57790;51.356;-2.906;2024-03-23T11:16:24;101508.78;;;10.45;100.00
70370;BME280;57790;51.356;-2.906;2024-03-23T11:19:35;101501.91;;;10.52;100.00
70370;BME280;57790;51.356;-2.906;2024-03-23T11:22:45;101499.94;;;10.54;100.00
70370;BME280;57790;51.356;-2.906;2024-03-23T11:25:53;101488.78;;;10.50;100.00
70370;BME280;57790;51.356;-2.906;2024-03-23T11:29:09;101488.66;;;10.52;100.00
70370;BME280;57790;51.356;-2.906;2024-03-23T11:32:10;101483.19;;;10.53;100.00
70370;BME280;57790;51.356;-2.906;2024-03-23T11:35:38;101485.84;;;10.53;100.00
70370;BME280;57790;51.356;-2.906;2024-03-23T11:38:40;101491.28;;;10.52;100.00
70370;BME280;57790;51.356;-2.906;2024-03-23T11:41:48;101489.22;;;10.46;100.00
70370;BME280;57790;51.356;-2.906;2024-03-23T11:44:48;101478.63;;;10.46;100.00
70370;BME280;57790;51.356;-2.906;2024-03-23T11:47:49;101481.13;;;10.47;100.00
70370;BME280;57790;51.356;-2.906;2024-03-23T11:50:50;101471.63;;;10.54;100.00
70370;BME280;57790;51.356;-2.906;2024-03-23T11:53:51;101475.81;;;10.57;100.00
70370;BME280;57790;51.356;-2.906;2024-03-23T11:56:59;101468.69;;;10.57;100.00
70370;BME280;57790;51.356;-2.906;2024-03-23T11:59:59;101468.25;;;10.62;100.00
70370;BME280;57790;51.356;-2.906;2024-03-23T12:03:03;101467.28;;;10.63;100.00
70370;BME280;57790;51.356;-2.906;2024-03-23T12:06:04;101468.25;;;10.62;100.00
70370;BME280;57790;51.356;-2.906;2024-03-23T12:09:06;101474.25;;;10.64;100.00
70370;BME280;57790;51.356;-2.906;2024-03-23T12:12:11;101471.72;;;10.72;100.00
70370;BME280;57790;51.356;-2.906;2024-03-23T12:15:14;101471.00;;;10.70;100.00
70370;BME280;57790;51.356;-2.906;2024-03-23T12:18:15;101473.94;;;10.67;100.00
70370;BME280;57790;51.356;-2.906;2024-03-23T12:21:15;101471.28;;;10.67;100.00
70370;BME280;57790;51.356;-2.906;2024-03-23T12:24:17;101466.81;;;10.67;100.00
70370;BME280;57790;51.356;-2.906;2024-03-23T12:27:17;101466.28;;;10.64;100.00
70370;BME280;57790;51.356;-2.906;2024-03-23T12:30:17;101458.03;;;10.67;100.00
70370;BME280;57790;51.356;-2.906;2024-03-23T12:33:18;101457.75;;;10.70;100.00
70370;BME280;57790;51.356;-2.906;2024-03-23T12:36:19;101451.75;;;10.68;100.00
70370;BME280;57790;51.356;-2.906;2024-03-23T12:39:19;101444.78;;;10.67;100.00
70370;BME280;57790;51.356;-2.906;2024-03-23T12:42:22;101438.22;;;10.71;100.00
70370;BME280;57790;51.356;-2.906;2024-03-23T12:45:23;101441.41;;;10.75;100.00
70370;BME280;57790;51.356;-2.906;2024-03-23T12:48:23;101430.81;;;10.75;100.00
70370;BME280;57790;51.356;-2.906;2024-03-23T12:51:23;101443.63;;;10.79;100.00
70370;BME280;57790;51.356;-2.906;2024-03-23T12:54:24;101442.25;;;10.75;100.00
70370;BME280;57790;51.356;-2.906;2024-03-23T12:57:25;101444.59;;;10.78;100.00
70370;BME280;57790;51.356;-2.906;2024-03-23T13:00:25;101445.28;;;10.80;100.00
70370;BME280;57790;51.356;-2.906;2024-03-23T13:03:26;101440.13;;;10.79;100.00
70370;BME280;57790;51.356;-2.906;2024-03-23T13:06:26;101427.56;;;10.81;100.00
70370;BME280;57790;51.356;-2.906;2024-03-23T13:09:27;101427.84;;;10.78;100.00
70370;BME280;57790;51.356;-2.906;2024-03-23T13:12:28;101421.56;;;10.79;100.00
70370;BME280;57790;51.356;-2.906;2024-03-23T13:15:28;101418.91;;;10.79;100.00
70370;BME280;57790;51.356;-2.906;2024-03-23T13:18:29;101429.06;;;10.83;100.00
70370;BME280;57790;51.356;-2.906;2024-03-23T13:21:30;101420.84;;;10.86;100.00
70370;BME280;57790;51.356;-2.906;2024-03-23T13:24:30;101427.72;;;10.79;100.00
70370;BME280;57790;51.356;-2.906;2024-03-23T13:27:31;101420.00;;;10.86;100.00
70370;BME280;57790;51.356;-2.906;2024-03-23T13:30:31;101414.56;;;10.87;100.00
70370;BME280;57790;51.356;-2.906;2024-03-23T13:33:31;101413.94;;;10.93;100.00
70370;BME280;57790;51.356;-2.906;2024-03-23T13:36:32;101407.28;;;10.89;100.00
70370;BME280;57790;51.356;-2.906;2024-03-23T13:39:32;101398.56;;;10.97;100.00
70370;BME280;57790;51.356;-2.906;2024-03-23T13:42:33;101402.75;;;10.99;100.00
70370;BME280;57790;51.356;-2.906;2024-03-23T13:45:33;101410.16;;;10.96;100.00
70370;BME280;57790;51.356;-2.906;2024-03-23T13:48:33;101408.75;;;11.01;100.00
70370;BME280;57790;51.356;-2.906;2024-03-23T13:51:34;101407.91;;;11.01;100.00
70370;BME280;57790;51.356;-2.906;2024-03-23T13:54:34;101406.47;;;11.07;100.00
70370;BME280;57790;51.356;-2.906;2024-03-23T13:57:34;101413.28;;;11.09;100.00
70370;BME280;57790;51.356;-2.906;2024-03-23T14:00:35;101419.75;;;11.07;100.00
70370;BME280;57790;51.356;-2.906;2024-03-23T14:03:35;101413.44;;;11.08;100.00
70370;BME280;57790;51.356;-2.906;2024-03-23T14:06:35;101405.50;;;11.08;100.00
70370;BME280;57790;51.356;-2.906;2024-03-23T14:09:36;101402.84;;;11.08;100.00
70370;BME280;57790;51.356;-2.906;2024-03-23T14:12:37;101404.34;;;11.10;100.00
70370;BME280;57790;51.356;-2.906;2024-03-23T14:15:37;101390.94;;;11.12;100.00
70370;BME280;57790;51.356;-2.906;2024-03-23T14:18:39;101386.59;;;11.11;100.00
70370;BME280;57790;51.356;-2.906;2024-03-23T14:21:40;101405.34;;;11.09;100.00
70370;BME280;57790;51.356;-2.906;2024-03-23T14:24:40;101408.13;;;10.90;100.00
70370;BME280;57790;51.356;-2.906;2024-03-23T14:27:40;101396.50;;;10.63;100.00
70370;BME280;57790;51.356;-2.906;2024-03-23T14:30:41;101393.72;;;10.65;100.00
70370;BME280;57790;51.356;-2.906;2024-03-23T14:33:42;101403.97;;;10.78;100.00
70370;BME280;57790;51.356;-2.906;2024-03-23T14:36:46;101406.34;;;10.81;100.00
70370;BME280;57790;51.356;-2.906;2024-03-23T14:39:46;101412.78;;;10.78;100.00
70370;BME280;57790;51.356;-2.906;2024-03-23T14:42:47;101412.78;;;10.78;100.00
70370;BME280;57790;51.356;-2.906;2024-03-23T14:46:06;101429.97;;;10.74;100.00
70370;BME280;57790;51.356;-2.906;2024-03-23T14:49:07;101435.47;;;10.90;100.00
70370;BME280;57790;51.356;-2.906;2024-03-23T14:52:08;101423.03;;;10.63;100.00
70370;BME280;57790;51.356;-2.906;2024-03-23T14:55:09;101410.50;;;10.83;100.00
70370;BME280;57790;51.356;-2.906;2024-03-23T14:58:09;101404.56;;;10.99;100.00
70370;BME280;57790;51.356;-2.906;2024-03-23T15:01:09;101410.56;;;11.01;100.00
70370;BME280;57790;51.356;-2.906;2024-03-23T15:04:10;101418.91;;;11.06;100.00
70370;BME280;57790;51.356;-2.906;2024-03-23T15:07:10;101421.09;;;11.11;100.00
70370;BME280;57790;51.356;-2.906;2024-03-23T15:10:10;101420.53;;;11.17;100.00
70370;BME280;57790;51.356;-2.906;2024-03-23T15:13:11;101430.00;;;11.19;100.00
70370;BME280;57790;51.356;-2.906;2024-03-23T15:16:16;101422.88;;;11.20;100.00
70370;BME280;57790;51.356;-2.906;2024-03-23T15:19:18;101422.41;;;11.24;100.00
70370;BME280;57790;51.356;-2.906;2024-03-23T15:22:18;101422.41;;;11.24;100.00
70370;BME280;57790;51.356;-2.906;2024-03-23T15:25:19;101414.56;;;11.32;100.00
70370;BME280;57790;51.356;-2.906;2024-03-23T15:28:19;101414.03;;;11.29;100.00
70370;BME280;57790;51.356;-2.906;2024-03-23T15:31:19;101411.75;;;11.34;100.00
70370;BME280;57790;51.356;-2.906;2024-03-23T15:34:20;101415.91;;;11.37;100.00
70370;BME280;57790;51.356;-2.906;2024-03-23T15:37:23;101406.44;;;11.34;100.00
70370;BME280;57790;51.356;-2.906;2024-03-23T15:40:23;101406.66;;;11.41;100.00
70370;BME280;57790;51.356;-2.906;2024-03-23T15:43:23;101392.09;;;11.45;100.00
70370;BME280;57790;51.356;-2.906;2024-03-23T15:46:24;101395.75;;;11.44;100.00
70370;BME280;57790;51.356;-2.906;2024-03-23T15:49:25;101385.66;;;11.47;100.00
70370;BME280;57790;51.356;-2.906;2024-03-23T15:52:25;101398.09;;;11.47;100.00
70370;BME280;57790;51.356;-2.906;2024-03-23T15:55:26;101398.63;;;11.50;100.00
70370;BME280;57790;51.356;-2.906;2024-03-23T15:58:27;101410.75;;;11.53;100.00
70370;BME280;57790;51.356;-2.906;2024-03-23T16:01:28;101405.91;;;11.48;100.00
70370;BME280;57790;51.356;-2.906;2024-03-23T16:04:28;101386.09;;;11.43;100.00
70370;BME280;57790;51.356;-2.906;2024-03-23T16:07:28;101397.03;;;11.57;100.00
70370;BME280;57790;51.356;-2.906;2024-03-23T16:10:29;101391.25;;;11.62;100.00
70370;BME280;57790;51.356;-2.906;2024-03-23T16:13:30;101398.25;;;11.63;100.00
70370;BME280;57790;51.356;-2.906;2024-03-23T16:16:31;101399.44;;;11.69;100.00
70370;BME280;57790;51.356;-2.906;2024-03-23T16:19:31;101401.09;;;11.70;100.00